Time;durP1;ratioP1;P1;durP2;ratioP2;P2;SDS_P1;SDS_P2;PMS_P1;PMS_P2;Temp;Humidity;BMP_temperature;BMP_pressure;BME280_temperature;BME280_humidity;BME280_pressure;Samples;Min_cycle;Max_cycle;Signal;HPM_P1;HPM_P2
2022/12/30 00:00:07;;;;;;;;;9.00;5.00;;;;;10.84;67.75;100945.28;5051630;28;45393;-79
2022/12/30 00:02:34;;;;;;;;;5.50;4.25;;;;;10.75;67.43;100935.78;5054862;28;45497;-79
2022/12/30 00:04:59;;;;;;;;;8.75;7.50;;;;;10.79;67.31;100939.22;5062035;27;45640;-79
2022/12/30 00:07:25;;;;;;;;;10.00;5.50;;;;;10.79;67.79;100934.75;5049894;28;45484;-79
2022/12/30 00:09:50;;;;;;;;;7.75;5.25;;;;;10.73;67.81;100933.16;5061212;28;45442;-79
2022/12/30 00:34:33;;;;;;;;;5.50;5.00;;;;;10.67;68.31;100921.78;5060204;28;46017;-79
2022/12/30 00:36:59;;;;;;;;;7.00;5.50;;;;;10.65;67.97;100918.28;5061859;27;45382;-79
2022/12/30 00:39:25;;;;;;;;;8.50;7.00;;;;;10.67;67.58;100913.75;5051589;28;45408;-79
2022/12/30 00:44:35;;;;;;;;;9.25;7.50;;;;;10.54;67.81;100911.47;5054182;28;45424;-78
2022/12/30 00:47:02;;;;;;;;;9.00;6.25;;;;;10.51;68.14;100908.03;5060922;28;45141;-78
2022/12/30 00:57:39;;;;;;;;;5.50;5.25;;;;;10.49;67.97;100907.16;5059483;28;45277;-79
2022/12/30 01:00:07;;;;;;;;;4.50;4.00;;;;;10.52;68.12;100918.66;5056972;28;45345;-79
2022/12/30 01:02:33;;;;;;;;;5.25;4.00;;;;;10.45;68.33;100897.53;5047890;28;45378;-79
2022/12/30 01:04:58;;;;;;;;;8.00;5.00;;;;;10.51;68.71;100898.22;5060233;28;47317;-79
2022/12/30 01:07:23;;;;;;;;;5.00;5.00;;;;;10.51;68.04;100900.00;5058621;28;45499;-79
2022/12/30 01:09:48;;;;;;;;;4.00;4.00;;;;;10.47;68.18;100885.88;5052268;28;45383;-79
2022/12/30 01:12:14;;;;;;;;;4.25;4.00;;;;;10.50;68.01;100891.13;5052488;28;45359;-79
2022/12/30 01:14:46;;;;;;;;;4.00;4.00;;;;;10.48;68.26;100892.09;5057345;28;47082;-79
2022/12/30 01:17:14;;;;;;;;;7.25;4.00;;;;;10.44;68.06;100885.09;5053365;28;45261;-79
2022/12/30 01:19:40;;;;;;;;;6.00;3.75;;;;;10.44;68.10;100874.41;5057248;28;45320;-79
2022/12/30 01:22:06;;;;;;;;;1.00;1.00;;;;;10.45;68.51;100879.69;5061066;28;45357;-79
2022/12/30 01:24:32;;;;;;;;;7.75;5.00;;;;;10.37;68.17;100861.28;5052521;28;47752;-79
2022/12/30 01:26:58;;;;;;;;;9.00;5.00;;;;;10.42;68.39;100868.25;5048286;28;45282;-79
2022/12/30 01:29:28;;;;;;;;;7.25;4.50;;;;;10.44;67.84;100871.75;5045102;28;45183;-79
2022/12/30 01:31:57;;;;;;;;;4.00;4.00;;;;;10.44;68.65;100877.06;5054616;28;45349;-79
2022/12/30 01:34:23;;;;;;;;;5.00;4.50;;;;;10.35;68.42;100857.75;5046700;28;46521;-79
2022/12/30 01:36:50;;;;;;;;;7.50;4.00;;;;;10.45;68.45;100876.16;5043530;28;45347;-79
2022/12/30 01:39:15;;;;;;;;;6.50;3.50;;;;;10.34;68.42;100865.78;5062369;28;45325;-79
2022/12/30 01:41:41;;;;;;;;;7.00;4.00;;;;;10.30;68.27;100864.13;5066036;27;45235;-79
2022/12/30 01:44:44;;;;;;;;;9.00;4.00;;;;;10.33;68.55;100880.94;5044005;28;45576;-79
2022/12/30 01:47:13;;;;;;;;;5.00;3.50;;;;;10.26;68.36;100867.81;5066450;27;45474;-79
2022/12/30 01:49:43;;;;;;;;;8.50;5.00;;;;;10.32;68.21;100878.31;5056384;28;45270;-79
2022/12/30 01:52:09;;;;;;;;;6.25;6.25;;;;;10.23;68.51;100866.09;5043947;28;45176;-79
2022/12/30 01:54:36;;;;;;;;;7.50;6.25;;;;;10.25;68.63;100874.91;5060785;28;45262;-79
2022/12/30 01:57:04;;;;;;;;;8.75;6.75;;;;;10.27;68.73;100870.41;5044221;28;45199;-79
2022/12/30 01:59:30;;;;;;;;;7.75;6.00;;;;;10.25;68.77;100863.38;5049205;28;45251;-79
2022/12/30 02:01:56;;;;;;;;;7.25;5.00;;;;;10.23;68.88;100867.91;5046741;28;45437;-79
2022/12/30 02:04:25;;;;;;;;;10.50;5.00;;;;;10.17;68.84;100858.25;5058370;28;46151;-79
2022/12/30 02:07:05;;;;;;;;;5.75;4.25;;;;;10.20;68.91;100868.84;5046909;28;45507;-79
2022/12/30 02:09:33;;;;;;;;;9.00;4.75;;;;;10.13;69.14;100860.13;5058002;28;45294;-79
2022/12/30 02:11:59;;;;;;;;;4.50;3.50;;;;;10.16;69.06;100877.88;5046548;28;45296;-79
2022/12/30 02:14:30;;;;;;;;;5.50;3.00;;;;;10.14;69.31;100877.00;5052392;28;45341;-78
2022/12/30 02:17:13;;;;;;;;;5.00;4.50;;;;;10.13;69.22;100877.94;5058432;28;45327;-78
2022/12/30 02:19:44;;;;;;;;;8.00;7.50;;;;;10.12;69.09;100878.84;5057956;28;45741;-79
2022/12/30 02:22:36;;;;;;;;;6.25;5.00;;;;;10.02;68.98;100859.56;5054123;28;45738;-78
2022/12/30 02:25:53;;;;;;;;;6.00;4.75;;;;;10.06;69.23;100863.91;5008996;28;46202;-78
2022/12/30 02:28:46;;;;;;;;;4.50;4.00;;;;;10.08;69.32;100866.53;5033075;28;45564;-78
2022/12/30 02:31:21;;;;;;;;;9.00;5.50;;;;;9.98;69.91;100860.56;5043152;28;45421;-79
2022/12/30 02:34:02;;;;;;;;;10.75;8.50;;;;;10.01;69.78;100865.84;5051378;28;45633;-79
2022/12/30 02:36:36;;;;;;;;;8.00;7.25;;;;;10.00;69.95;100866.75;5059509;28;46151;-79
2022/12/30 02:39:19;;;;;;;;;8.50;7.75;;;;;10.01;69.80;100857.84;5059071;28;45705;-79
2022/12/30 02:45:08;;;;;;;;;4.50;4.00;;;;;9.93;70.55;100849.16;5042587;28;45369;-79
2022/12/30 02:48:21;;;;;;;;;7.75;7.00;;;;;9.95;70.54;100842.84;5058617;28;45505;-79
2022/12/30 02:53:38;;;;;;;;;3.50;3.50;;;;;9.87;71.19;100842.19;5047927;28;45317;-79
2022/12/30 02:56:03;;;;;;;;;9.50;7.25;;;;;9.76;70.74;100831.84;5059190;28;45852;-79
2022/12/30 02:58:32;;;;;;;;;8.75;7.75;;;;;9.79;70.82;100833.56;5055022;28;45468;-79
2022/12/30 03:04:35;;;;;;;;;11.25;8.00;;;;;9.76;71.96;100829.19;5054379;28;45396;-79
2022/12/30 03:07:21;;;;;;;;;10.00;9.00;;;;;9.71;71.69;100825.78;5059789;28;45326;-79
2022/12/30 03:13:07;;;;;;;;;12.00;9.50;;;;;9.72;71.62;100815.97;5053256;28;45594;-79
2022/12/30 03:15:49;;;;;;;;;12.25;9.75;;;;;9.64;72.50;100814.41;5050072;28;45378;-79
2022/12/30 03:18:16;;;;;;;;;8.75;7.75;;;;;9.70;72.54;100817.81;5057050;28;45621;-79
2022/12/30 03:20:44;;;;;;;;;12.25;8.75;;;;;9.71;72.66;100812.44;5047005;28;45478;-78
2022/12/30 03:28:44;;;;;;;;;9.00;6.50;;;;;9.72;72.81;100799.97;5042528;28;45447;-78
2022/12/30 03:31:13;;;;;;;;;8.00;7.00;;;;;9.73;72.99;100799.06;5050392;28;45669;-78
2022/12/30 03:33:39;;;;;;;;;8.00;7.75;;;;;9.77;72.38;100792.72;5058789;28;45323;-79
2022/12/30 03:36:28;;;;;;;;;6.50;5.00;;;;;9.61;72.31;100771.84;5061717;28;45286;-79
2022/12/30 03:39:02;;;;;;;;;7.00;6.50;;;;;9.66;72.62;100782.38;5052903;28;45343;-78
2022/12/30 03:41:29;;;;;;;;;6.00;6.00;;;;;9.72;72.49;100784.88;5057899;28;45397;-78
2022/12/30 03:43:55;;;;;;;;;10.25;8.75;;;;;9.80;72.80;100793.50;5053931;28;45313;-78
2022/12/30 03:46:27;;;;;;;;;10.00;5.50;;;;;9.83;72.72;100790.75;5047005;28;45406;-78
2022/12/30 03:48:52;;;;;;;;;8.25;7.00;;;;;9.77;72.43;100782.06;5046227;28;45597;-78
2022/12/30 03:51:18;;;;;;;;;7.00;7.00;;;;;9.78;72.29;100783.81;5052810;28;45453;-78
2022/12/30 03:53:43;;;;;;;;;5.00;5.00;;;;;9.68;72.78;100761.88;5052496;28;45347;-78
2022/12/30 03:56:08;;;;;;;;;7.75;6.00;;;;;9.69;72.56;100768.97;5047633;28;45409;-80
2022/12/30 03:58:34;;;;;;;;;5.00;5.00;;;;;9.68;72.67;100774.34;5057195;28;45393;-79
2022/12/30 04:00:59;;;;;;;;;4.00;2.50;;;;;9.61;72.94;100757.66;5048542;28;45351;-79
2022/12/30 04:03:24;;;;;;;;;4.00;4.00;;;;;9.62;73.09;100757.59;5034990;28;45268;-79
2022/12/30 04:05:54;;;;;;;;;4.00;4.00;;;;;9.63;72.86;100753.13;5053540;28;45376;-79
2022/12/30 04:08:21;;;;;;;;;8.00;3.75;;;;;9.68;73.07;100750.34;5062898;28;45684;-79
2022/12/30 04:10:46;;;;;;;;;7.00;5.00;;;;;9.71;73.16;100760.94;5053753;28;47820;-79
2022/12/30 04:13:11;;;;;;;;;3.00;3.00;;;;;9.57;72.90;100726.66;5052655;28;45279;-79
2022/12/30 04:15:37;;;;;;;;;5.50;5.00;;;;;9.56;73.65;100728.44;5046989;28;45254;-79
2022/12/30 04:18:02;;;;;;;;;6.00;6.00;;;;;9.64;73.16;100747.78;5044271;28;45311;-79
2022/12/30 04:20:27;;;;;;;;;5.75;5.00;;;;;9.67;73.46;100741.47;5058351;28;45447;-79
2022/12/30 04:22:58;;;;;;;;;8.00;5.50;;;;;9.60;73.71;100732.75;5043436;28;45517;-79
2022/12/30 04:25:25;;;;;;;;;8.25;8.25;;;;;9.55;73.93;100725.84;5048192;28;45226;-79
2022/12/30 04:27:51;;;;;;;;;9.50;5.50;;;;;9.62;73.95;100738.94;5054813;28;45418;-79
2022/12/30 04:30:16;;;;;;;;;8.00;4.25;;;;;9.50;73.97;100720.63;5048189;28;46039;-81
2022/12/30 04:32:42;;;;;;;;;9.25;7.00;;;;;9.56;73.71;100731.13;5040787;28;45467;-79
2022/12/30 04:35:07;;;;;;;;;12.50;9.25;;;;;9.57;73.92;100724.00;5051405;28;45399;-79
2022/12/30 04:37:33;;;;;;;;;7.25;5.25;;;;;9.54;74.15;100730.28;5056719;28;45331;-79
2022/12/30 04:39:58;;;;;;;;;8.50;6.50;;;;;9.63;74.42;100734.47;5064861;28;45531;-79
2022/12/30 04:42:23;;;;;;;;;6.00;4.50;;;;;9.59;74.38;100719.50;5056328;27;45391;-79
2022/12/30 04:44:49;;;;;;;;;6.25;4.00;;;;;9.61;74.76;100723.88;5059784;28;45470;-79
2022/12/30 04:47:14;;;;;;;;;6.50;6.50;;;;;9.50;74.51;100695.78;5051859;28;45396;-79
2022/12/30 04:49:39;;;;;;;;;8.25;7.00;;;;;9.62;74.62;100714.97;5058339;28;45302;-79
2022/12/30 04:52:05;;;;;;;;;8.25;4.50;;;;;9.56;74.44;100712.47;5045469;28;45510;-79
2022/12/30 04:54:30;;;;;;;;;8.00;5.25;;;;;9.59;74.68;100707.06;5052016;28;45344;-79
2022/12/30 04:56:55;;;;;;;;;9.75;6.50;;;;;9.61;74.73;100707.00;5046575;28;45337;-79
2022/12/30 04:59:21;;;;;;;;;7.00;3.50;;;;;9.64;74.58;100693.59;5057693;28;45264;-79
2022/12/30 05:01:47;;;;;;;;;3.75;3.75;;;;;9.66;74.27;100681.09;5054117;28;45569;-79
2022/12/30 05:04:12;;;;;;;;;6.50;5.50;;;;;9.60;74.65;100660.81;5046669;28;45634;-79
2022/12/30 05:06:38;;;;;;;;;6.50;5.00;;;;;9.64;75.10;100667.81;5054959;28;45453;-79
2022/12/30 05:09:03;;;;;;;;;5.25;4.00;;;;;9.71;74.41;100668.50;5054675;28;47244;-79
2022/12/30 05:11:29;;;;;;;;;5.25;4.00;;;;;9.72;74.82;100674.69;5050789;28;45682;-79
2022/12/30 05:13:54;;;;;;;;;4.25;2.00;;;;;9.72;75.11;100658.69;5047289;28;45644;-79
2022/12/30 05:16:19;;;;;;;;;4.00;4.00;;;;;9.68;74.97;100641.94;5055023;28;45484;-79
2022/12/30 05:18:45;;;;;;;;;3.00;3.00;;;;;9.71;75.22;100630.31;5048617;28;45288;-80
2022/12/30 05:21:10;;;;;;;;;2.75;2.25;;;;;9.77;74.68;100616.78;5051791;28;45272;-79
2022/12/30 05:26:19;;;;;;;;;7.00;4.00;;;;;9.78;75.45;100623.88;5054889;28;45317;-79
2022/12/30 05:28:47;;;;;;;;;5.00;3.25;;;;;9.61;74.78;100595.94;5055617;28;45578;-79
2022/12/30 05:31:14;;;;;;;;;3.00;3.00;;;;;9.75;75.43;100613.28;5049588;28;45218;-79
2022/12/30 05:33:40;;;;;;;;;7.25;4.25;;;;;9.66;75.12;100601.13;5045162;28;45323;-79
2022/12/30 05:36:06;;;;;;;;;3.25;3.25;;;;;9.77;75.54;100616.78;5057403;28;45381;-79
2022/12/30 05:38:31;;;;;;;;;4.00;4.00;;;;;9.78;75.15;100611.41;5060047;28;45470;-79
2022/12/30 05:40:57;;;;;;;;;2.00;2.00;;;;;9.85;75.31;100611.22;5045313;28;45465;-79
2022/12/30 05:43:22;;;;;;;;;4.50;3.00;;;;;9.81;75.53;100602.44;5060703;28;45459;-79
2022/12/30 05:45:48;;;;;;;;;4.25;4.00;;;;;9.86;75.67;100603.19;5059608;28;45312;-80
2022/12/30 05:48:13;;;;;;;;;5.00;3.00;;;;;9.91;75.50;100587.91;5060147;28;45254;-80
2022/12/30 05:50:39;;;;;;;;;2.75;1.00;;;;;9.94;75.11;100579.81;5048465;28;45421;-79
2022/12/30 05:53:04;;;;;;;;;7.50;2.00;;;;;9.95;75.69;100573.53;5057349;28;45438;-79
2022/12/30 05:55:30;;;;;;;;;1.50;1.00;;;;;10.00;75.52;100578.72;5057720;28;45251;-79
2022/12/30 05:57:56;;;;;;;;;3.00;3.00;;;;;10.01;75.75;100570.69;5057104;28;47046;-80
2022/12/30 06:00:21;;;;;;;;;3.25;2.75;;;;;9.95;75.39;100560.22;5062167;27;45141;-79
2022/12/30 06:02:47;;;;;;;;;4.00;2.75;;;;;9.94;75.88;100549.59;5059410;28;45207;-79
2022/12/30 06:05:12;;;;;;;;;5.50;3.00;;;;;9.83;75.70;100526.81;5057394;28;45255;-79
2022/12/30 06:07:37;;;;;;;;;2.00;1.50;;;;;9.95;75.99;100528.22;5049222;28;48511;-79
2022/12/30 06:10:03;;;;;;;;;3.50;2.00;;;;;9.91;75.78;100518.59;5045121;28;45499;-81
2022/12/30 06:12:29;;;;;;;;;1.25;1.00;;;;;9.82;75.89;100494.88;5059291;28;45286;-80
2022/12/30 06:14:54;;;;;;;;;3.25;3.00;;;;;10.04;76.13;100524.38;5045656;28;45235;-80
2022/12/30 06:17:19;;;;;;;;;3.75;2.50;;;;;9.98;75.76;100509.44;5043991;28;45433;-80
2022/12/30 06:19:44;;;;;;;;;2.50;2.00;;;;;9.98;75.46;100500.59;5050182;28;45352;-80
2022/12/30 06:22:10;;;;;;;;;2.25;1.50;;;;;10.12;75.62;100517.00;5049633;28;45359;-80
2022/12/30 06:24:35;;;;;;;;;3.25;1.00;;;;;10.12;76.12;100500.09;5059281;28;45332;-80
2022/12/30 06:27:00;;;;;;;;;5.75;2.50;;;;;10.09;75.87;100495.75;5052258;28;45379;-79
2022/12/30 06:29:26;;;;;;;;;4.75;2.00;;;;;10.06;75.87;100484.34;5042084;28;45432;-79
2022/12/30 06:31:51;;;;;;;;;3.50;2.00;;;;;10.08;75.86;100486.00;5057336;28;45515;-80
2022/12/30 06:34:16;;;;;;;;;3.75;1.25;;;;;10.13;76.21;100480.53;5056989;28;45696;-80
2022/12/30 06:36:42;;;;;;;;;3.50;3.00;;;;;10.13;75.80;100475.19;5051262;28;45977;-80
2022/12/30 06:39:07;;;;;;;;;2.75;2.00;;;;;10.14;75.78;100471.56;5051480;28;45277;-80
2022/12/30 06:41:33;;;;;;;;;5.50;4.25;;;;;10.18;75.98;100475.91;5050119;28;45419;-80
2022/12/30 06:43:58;;;;;;;;;2.50;1.50;;;;;10.14;75.98;100464.47;5057611;28;45250;-80
2022/12/30 06:46:23;;;;;;;;;3.25;1.75;;;;;10.22;76.52;100455.31;5051235;28;46176;-79
2022/12/30 06:48:49;;;;;;;;;3.75;3.00;;;;;10.19;76.24;100453.66;5055153;28;45329;-80
2022/12/30 06:51:14;;;;;;;;;4.50;3.00;;;;;10.17;76.61;100442.13;5048543;28;45533;-80
2022/12/30 06:53:39;;;;;;;;;4.50;2.50;;;;;10.07;76.30;100414.91;5049577;28;45283;-80
2022/12/30 06:56:06;;;;;;;;;1.00;1.00;;;;;10.28;76.34;100452.44;5046546;28;46739;-79
2022/12/30 06:58:32;;;;;;;;;2.50;0.75;;;;;10.28;76.22;100433.75;5052970;28;45839;-79
2022/12/30 07:00:57;;;;;;;;;3.00;2.00;;;;;10.28;76.50;100418.63;5052340;28;45362;-79
2022/12/30 07:03:23;;;;;;;;;3.75;3.25;;;;;10.30;76.03;100423.91;5050799;28;45654;-79
2022/12/30 07:05:48;;;;;;;;;2.00;2.00;;;;;10.34;76.22;100415.78;5032871;28;47506;-80
2022/12/30 07:08:13;;;;;;;;;4.75;0.00;;;;;10.38;75.72;100409.38;5046734;28;45415;-80
2022/12/30 07:10:39;;;;;;;;;3.50;3.00;;;;;10.32;75.96;100385.63;5056657;28;45587;-80
2022/12/30 07:13:04;;;;;;;;;4.00;1.75;;;;;10.40;76.14;100392.47;5041606;28;45738;-79
2022/12/30 07:15:29;;;;;;;;;1.75;1.75;;;;;10.47;76.05;100381.47;5041378;28;46038;-80
2022/12/30 07:17:54;;;;;;;;;1.25;1.00;;;;;10.46;75.89;100382.44;5053144;28;45481;-81
2022/12/30 07:20:20;;;;;;;;;1.00;1.00;;;;;10.48;75.90;100379.69;5057275;28;45476;-80
2022/12/30 07:22:45;;;;;;;;;1.00;1.00;;;;;10.50;75.56;100368.03;5056821;28;46044;-79
2022/12/30 07:25:11;;;;;;;;;0.00;0.00;;;;;10.53;75.59;100370.56;5054174;28;45436;-79
2022/12/30 07:27:36;;;;;;;;;2.50;1.25;;;;;10.54;75.75;100369.66;5054885;28;45430;-80
2022/12/30 07:30:03;;;;;;;;;3.00;1.75;;;;;10.45;75.60;100358.47;5059110;28;45554;-80
2022/12/30 07:32:29;;;;;;;;;3.00;1.25;;;;;10.48;75.32;100358.34;5045220;28;46722;-83
2022/12/30 07:34:54;;;;;;;;;3.25;1.75;;;;;10.54;75.64;100361.66;5063000;28;46589;-83
2022/12/30 07:37:20;;;;;;;;;2.00;2.00;;;;;10.52;75.36;100350.19;5053989;27;45289;-82
2022/12/30 07:39:45;;;;;;;;;3.75;2.25;;;;;10.47;75.50;100337.91;5055195;28;45580;-82
2022/12/30 07:42:10;;;;;;;;;1.00;1.00;;;;;10.60;75.29;100351.66;5048568;28;45461;-79
2022/12/30 07:44:37;;;;;;;;;2.00;2.00;;;;;10.63;75.40;100341.75;5045553;28;46472;-78
2022/12/30 07:47:03;;;;;;;;;3.00;1.50;;;;;10.59;75.55;100329.44;5051672;28;45855;-79
2022/12/30 07:49:29;;;;;;;;;4.00;3.00;;;;;10.66;75.37;100336.28;5053943;28;45322;-77
2022/12/30 07:51:54;;;;;;;;;1.00;0.50;;;;;10.60;74.96;100339.19;5054608;28;45380;-77
2022/12/30 07:54:19;;;;;;;;;1.50;1.00;;;;;10.68;74.98;100342.44;5046138;28;45481;-78
2022/12/30 07:56:45;;;;;;;;;3.00;1.00;;;;;10.65;75.20;100342.53;5044124;28;45437;-77
2022/12/30 07:59:11;;;;;;;;;1.00;1.00;;;;;10.64;74.86;100330.16;5056467;28;45587;-77
2022/12/30 08:01:37;;;;;;;;;1.75;0.75;;;;;10.72;74.84;100345.84;5043134;28;45544;-76
2022/12/30 08:04:02;;;;;;;;;1.75;1.00;;;;;10.70;74.65;100337.03;5051909;28;46627;-77
2022/12/30 08:06:28;;;;;;;;;1.00;1.00;;;;;10.76;74.80;100339.47;5054875;28;45465;-77
2022/12/30 08:08:53;;;;;;;;;2.00;0.25;;;;;10.68;74.36;100337.09;5054903;28;45266;-77
2022/12/30 08:11:18;;;;;;;;;0.00;0.00;;;;;10.67;74.74;100323.81;5041914;28;45863;-77
2022/12/30 08:13:44;;;;;;;;;1.25;1.25;;;;;10.71;74.19;100320.94;5052864;28;45274;-78
2022/12/30 08:16:13;;;;;;;;;1.00;1.00;;;;;10.68;74.10;100294.38;5052870;28;45598;-79
2022/12/30 08:18:39;;;;;;;;;1.00;1.00;;;;;10.77;74.23;100309.16;5050735;28;45274;-78
2022/12/30 08:21:07;;;;;;;;;1.00;1.00;;;;;10.79;74.17;100309.94;5055621;28;45264;-78
2022/12/30 08:23:33;;;;;;;;;1.00;0.50;;;;;10.81;74.52;100299.22;5060672;28;45298;-78
2022/12/30 08:26:04;;;;;;;;;1.75;1.00;;;;;10.77;74.15;100278.91;5048118;28;45326;-79
2022/12/30 08:28:29;;;;;;;;;1.75;1.75;;;;;10.78;74.28;100284.19;5046920;28;45318;-79
2022/12/30 08:30:54;;;;;;;;;2.75;1.50;;;;;10.82;74.30;100284.94;5052649;28;45553;-79
2022/12/30 08:33:20;;;;;;;;;1.00;1.00;;;;;10.82;74.78;100288.47;5058709;28;45634;-80
2022/12/30 08:35:45;;;;;;;;;0.25;0.00;;;;;10.86;74.86;100294.56;5069941;28;45357;-79
2022/12/30 08:38:10;;;;;;;;;3.75;1.00;;;;;10.73;75.06;100267.50;5057740;28;45349;-79
2022/12/30 08:40:36;;;;;;;;;1.25;0.75;;;;;10.71;74.88;100258.69;5048389;28;45391;-84
2022/12/30 08:43:01;;;;;;;;;2.00;0.75;;;;;10.78;75.24;100268.19;5056231;28;47231;-83
2022/12/30 08:45:26;;;;;;;;;1.00;1.00;;;;;10.63;75.39;100234.97;5061417;28;45267;-83
2022/12/30 08:47:52;;;;;;;;;1.00;1.00;;;;;10.68;75.44;100241.00;5055484;28;45689;-79
2022/12/30 08:50:17;;;;;;;;;1.50;1.50;;;;;10.77;75.37;100252.22;5060223;28;45404;-80
2022/12/30 08:52:43;;;;;;;;;2.75;1.00;;;;;10.70;75.61;100244.47;5052613;28;47310;-80
2022/12/30 08:55:08;;;;;;;;;3.00;1.00;;;;;10.70;76.09;100236.44;5057223;28;45765;-79
2022/12/30 08:57:37;;;;;;;;;2.00;2.00;;;;;10.72;75.91;100234.56;5051125;28;45476;-80
2022/12/30 09:00:02;;;;;;;;;1.00;0.00;;;;;10.66;76.38;100217.94;5054411;28;45605;-80
2022/12/30 09:02:28;;;;;;;;;2.00;1.00;;;;;10.71;76.04;100222.19;5049455;28;46212;-79
2022/12/30 09:04:53;;;;;;;;;3.00;1.00;;;;;10.68;76.31;100229.47;5056028;28;45334;-80
2022/12/30 09:07:18;;;;;;;;;1.00;1.00;;;;;10.67;76.55;100212.53;5054069;28;45446;-80
2022/12/30 09:09:44;;;;;;;;;2.00;2.00;;;;;10.66;76.89;100208.16;5062711;27;45544;-80
2022/12/30 09:12:09;;;;;;;;;3.25;2.00;;;;;10.66;76.98;100185.91;5041733;28;46501;-79
2022/12/30 09:14:34;;;;;;;;;0.00;0.00;;;;;10.60;76.69;100165.69;5059443;28;45309;-80
2022/12/30 09:17:00;;;;;;;;;3.00;0.75;;;;;10.68;76.71;100168.06;5049697;28;45524;-79
2022/12/30 09:19:25;;;;;;;;;0.00;0.00;;;;;10.67;77.08;100150.28;5055406;28;46589;-81
2022/12/30 09:21:51;;;;;;;;;2.25;1.00;;;;;10.51;76.73;100128.75;5051509;28;46016;-82
2022/12/30 09:24:16;;;;;;;;;1.00;1.00;;;;;10.54;76.89;100144.59;5058661;28;45315;-79
2022/12/30 09:26:41;;;;;;;;;1.00;1.00;;;;;10.51;77.44;100134.94;5046872;28;45720;-81
2022/12/30 09:29:07;;;;;;;;;2.75;1.50;;;;;10.58;77.85;100172.91;5055856;28;45417;-86
2022/12/30 09:31:33;;;;;;;;;1.00;1.00;;;;;10.60;77.58;100159.50;5062076;28;45973;-79
2022/12/30 09:33:58;;;;;;;;;3.25;1.00;;;;;10.62;77.72;100171.84;5049668;28;45670;-80
2022/12/30 09:36:24;;;;;;;;;2.25;1.00;;;;;10.64;77.55;100178.00;5051185;28;45260;-79
2022/12/30 09:38:49;;;;;;;;;1.50;1.00;;;;;10.61;77.69;100146.09;5052678;28;45357;-78
2022/12/30 09:44:43;;;;;;;;;2.00;1.00;;;;;10.60;77.81;100144.34;5053666;28;45442;-78
2022/12/30 09:47:29;;;;;;;;;2.00;1.00;;;;;10.62;78.20;100144.28;5048775;28;45393;-78
2022/12/30 09:50:20;;;;;;;;;1.00;1.00;;;;;10.62;78.32;100144.28;5059393;28;45349;-78
2022/12/30 09:52:51;;;;;;;;;1.25;1.25;;;;;10.63;78.30;100127.34;5053461;28;46590;-78
2022/12/30 09:55:21;;;;;;;;;1.00;1.00;;;;;10.62;78.79;100129.13;5060659;28;45589;-78
2022/12/30 09:57:54;;;;;;;;;1.50;1.50;;;;;10.48;78.60;100099.50;5054234;28;45564;-78
2022/12/30 10:00:22;;;;;;;;;2.00;0.00;;;;;10.62;79.23;100125.59;5057922;28;45286;-78
2022/12/30 10:02:50;;;;;;;;;1.00;1.00;;;;;10.62;79.40;100110.44;5053444;28;46051;-78
2022/12/30 10:05:16;;;;;;;;;2.75;1.75;;;;;10.60;79.10;100087.44;5049710;28;45472;-78
2022/12/30 10:07:41;;;;;;;;;3.00;2.00;;;;;10.61;79.62;100092.72;5066046;28;45795;-78
2022/12/30 10:10:19;;;;;;;;;1.00;1.00;;;;;10.60;79.88;100090.97;5054860;28;45560;-78
2022/12/30 10:12:54;;;;;;;;;1.25;1.00;;;;;10.63;79.97;100080.16;5059032;28;47277;-78
2022/12/30 10:15:37;;;;;;;;;1.50;1.50;;;;;10.65;79.81;100070.28;5058488;28;45477;-78
2022/12/30 10:18:26;;;;;;;;;2.00;2.00;;;;;10.67;79.76;100067.56;5060273;28;45309;-78
2022/12/30 10:20:57;;;;;;;;;1.00;1.00;;;;;10.66;80.17;100040.00;5056657;28;45208;-78
2022/12/30 10:23:50;;;;;;;;;9.00;6.25;;;;;10.72;80.18;100039.72;5050133;28;46340;-78
2022/12/30 10:26:22;;;;;;;;;1.00;1.00;;;;;10.74;80.55;100032.53;5051657;28;45389;-78
2022/12/30 10:28:54;;;;;;;;;1.50;1.50;;;;;10.77;80.43;100020.81;5045802;28;45428;-78
2022/12/30 10:31:23;;;;;;;;;1.00;0.00;;;;;10.69;80.45;100021.19;5058794;28;45283;-78
2022/12/30 10:33:51;;;;;;;;;1.75;1.00;;;;;10.78;80.91;100016.38;5055398;28;46327;-78
2022/12/30 10:36:22;;;;;;;;;1.00;1.00;;;;;10.86;80.69;100022.22;5048654;28;45556;-78
2022/12/30 10:38:47;;;;;;;;;1.00;0.00;;;;;10.86;80.75;100008.84;5048084;28;45278;-78
2022/12/30 10:41:20;;;;;;;;;1.00;1.00;;;;;10.91;81.23;100021.09;5055049;28;45368;-78
2022/12/30 10:44:13;;;;;;;;;1.00;0.25;;;;;10.93;81.55;100002.31;5044779;28;45448;-78
2022/12/30 10:46:47;;;;;;;;;2.00;1.00;;;;;10.98;81.17;100010.13;5042304;28;45327;-78
2022/12/30 10:49:33;;;;;;;;;2.00;0.00;;;;;11.00;81.49;100010.94;5057730;28;45313;-78
2022/12/30 10:52:01;;;;;;;;;0.00;0.00;;;;;11.01;82.15;99992.16;5053920;28;45561;-78
2022/12/30 10:54:26;;;;;;;;;2.00;0.00;;;;;11.00;82.52;99989.56;5053336;28;45524;-79
2022/12/30 10:56:51;;;;;;;;;0.50;0.50;;;;;11.06;82.08;99974.13;5055991;28;45405;-78
2022/12/30 10:59:24;;;;;;;;;0.00;0.00;;;;;11.09;82.32;99978.44;5055077;28;45365;-78
2022/12/30 11:01:58;;;;;;;;;0.00;0.00;;;;;11.12;82.15;99957.78;5045330;28;45266;-79
2022/12/30 11:04:41;;;;;;;;;0.00;0.00;;;;;11.06;82.52;99943.84;5067592;28;47463;-78
2022/12/30 11:07:10;;;;;;;;;0.75;0.75;;;;;11.05;82.97;99958.16;5052696;28;45533;-78
2022/12/30 11:09:36;;;;;;;;;1.25;1.00;;;;;11.05;83.28;99936.78;5056140;28;45283;-78
2022/12/30 11:15:02;;;;;;;;;0.00;0.00;;;;;11.26;82.71;99932.22;5053738;28;45895;-78
2022/12/30 11:17:41;;;;;;;;;0.00;0.00;;;;;11.28;83.20;99941.91;5052490;28;45516;-78
2022/12/30 11:20:12;;;;;;;;;0.50;0.00;;;;;11.35;83.22;99957.66;5055344;28;45538;-78
2022/12/30 11:22:49;;;;;;;;;1.00;1.00;;;;;11.38;82.70;99950.34;5070496;28;45246;-78
2022/12/30 11:25:42;;;;;;;;;1.00;1.00;;;;;11.43;83.30;99926.09;5053553;28;45478;-78
2022/12/30 11:28:25;;;;;;;;;0.00;0.00;;;;;11.46;83.12;99936.59;5052166;28;45591;-78
2022/12/30 11:31:02;;;;;;;;;2.00;1.00;;;;;11.55;83.52;99937.97;5052995;28;45560;-78
2022/12/30 11:33:35;;;;;;;;;0.00;0.00;;;;;11.59;83.14;99926.16;5054706;28;45977;-78
2022/12/30 11:36:10;;;;;;;;;0.00;0.00;;;;;11.56;83.36;99905.81;5057790;28;47251;-78
2022/12/30 11:38:44;;;;;;;;;1.50;0.25;;;;;11.66;83.46;99915.13;5050707;28;45306;-78
2022/12/30 11:41:29;;;;;;;;;1.00;1.00;;;;;11.68;83.76;99923.91;5058367;28;45519;-78
2022/12/30 11:44:00;;;;;;;;;0.00;0.00;;;;;11.73;84.02;99913.00;5055722;28;45329;-78
2022/12/30 11:46:40;;;;;;;;;0.00;0.00;;;;;11.73;84.02;99899.63;5057687;28;47939;-78
2022/12/30 11:49:23;;;;;;;;;0.00;0.00;;;;;11.75;83.68;99918.28;5055700;28;45915;-78
2022/12/30 11:51:55;;;;;;;;;0.00;0.00;;;;;11.82;83.56;99911.66;5053838;28;45370;-79
2022/12/30 11:54:24;;;;;;;;;0.00;0.00;;;;;11.80;83.64;99924.25;5049997;28;45338;-78
2022/12/30 11:57:18;;;;;;;;;1.00;1.00;;;;;11.89;83.73;99922.91;5049860;28;45524;-78
2022/12/30 11:59:47;;;;;;;;;0.00;0.00;;;;;11.82;83.57;99884.91;5055616;28;45526;-78
2022/12/30 12:02:31;;;;;;;;;0.25;0.25;;;;;11.94;83.94;99899.50;5044485;28;45406;-78
2022/12/30 12:04:56;;;;;;;;;1.00;1.00;;;;;11.87;83.84;99905.13;5053590;28;45674;-78
2022/12/30 12:07:22;;;;;;;;;0.50;0.50;;;;;11.98;84.10;99909.97;5062229;28;45626;-78
2022/12/30 12:09:54;;;;;;;;;1.75;1.00;;;;;12.03;83.90;99897.22;5058941;28;45360;-78
2022/12/30 12:12:25;;;;;;;;;2.00;0.00;;;;;12.08;84.02;99912.16;5074350;27;45339;-78
2022/12/30 12:15:04;;;;;;;;;0.50;0.25;;;;;12.11;83.96;99901.28;5051230;28;45396;-78
2022/12/30 12:17:54;;;;;;;;;0.00;0.00;;;;;12.00;84.13;99873.31;5047976;28;45285;-78
2022/12/30 12:21:03;;;;;;;;;0.00;0.00;;;;;12.19;84.39;99916.00;5042882;28;45491;-78
2022/12/30 12:24:06;;;;;;;;;1.00;1.00;;;;;12.23;84.42;99901.53;4977469;28;45400;-78
2022/12/30 12:27:12;;;;;;;;;0.25;0.00;;;;;12.25;84.49;99897.91;5061167;28;45350;-78
2022/12/30 12:29:38;;;;;;;;;0.00;0.00;;;;;12.29;84.49;99892.31;5021533;28;48236;-78
2022/12/30 12:32:09;;;;;;;;;1.00;0.00;;;;;12.36;84.51;99903.53;5051873;28;45679;-78
2022/12/30 12:34:53;;;;;;;;;0.75;0.75;;;;;12.40;84.30;99891.75;5058508;28;45250;-78
2022/12/30 12:37:33;;;;;;;;;0.75;0.75;;;;;12.42;84.73;99881.81;5046707;28;45385;-78
2022/12/30 12:40:29;;;;;;;;;0.25;0.00;;;;;12.46;84.50;99893.22;5051219;28;46163;-78